Norfolk Ns (Chambers Fld) Airport
KNGU : now visible

Airfield :











YOU CAN JOIN US ON...

 
LOGIN :

Register | Disclaimer

   EN    FR    IT 

 









Legend :    VFR   Marginal VFR   IFR   Intensive IFR   Very Intensive IFR
Visi :
Ceiling :
>= 8 km
>= 3000ft
5 to 8 km
1000 to 3000 ft
1500m to 5 km
500 to 1000 ft
800 to 1500m
200 to 500 ft
< 800m
< 200 ft
Symbols :   Thunderstorms  Fog  Heavy snow  Heavy precipitations  Wind > 20 kt






- Airport Elevation : 17 ft


KNGU - Norfolk Ns (Chambers Fld)

CURRENT METAR :
  • 212359Z 21007KT 10SM FEW280 22/11 A3000 RMK AO2 SLP158 T02220106 10272 20222 53000 $

EXPIRED METARs :
  • 212259Z 21008KT 10SM FEW150 FEW280 23/11 A2999 RMK AO2 SLP156 T02280111 $
  • 212159Z 21009G14KT 10SM FEW280 24/11 A3000 RMK AO2 SLP157 T02390106 $

TAF TAF KNGU
Valid from the 21 at 23:00 until the 22 at 23:00 UTC


2123/2223 21009G18KT 9999 FEW150 FEW280 QNH2995INS
BECMG 2202/2204 22012G22KT 9999 FEW030 SCT050 SCT250 QNH2990INS
FM221100 23009G18KT 9999 VCSH SCT025 SCT040 BKN250 QNH2992INS
TEMPO 2211/2217 25011G24KT 8000 -SHRA BR BKN025 OVC060
FM221700 27007KT 9999 VCSH FEW025 BKN035 BKN150 QNH2988INS
TEMPO 2217/2223 VRB06KT 4800 SHRA BR FEW015 BKN025 OVC050 T19/2211Z T24/2218Z FN00062
KZDC FIR / North America



MET'MAP, your aeronautical weather chart ! - Copyright ORBIFLY December 2007 - Disclaimer

ORBIFLY MET'MAP TEAM :

Programming & Development : Alexandra Zaïnal
Concept & original design : Baudouin d'Aumeries
Assistance for programming : Marc-Olivier Méhu
Technical & hardware support : Manuel Goepfert

Contact : metmap@orbifly.com




SOURCES & CREDITS :

   NOAA       Earth
Advisory